Time,TemperatureF,DewpointF,PressureIn,WindDirection,WindDirectionDegrees,WindSpeedMPH,WindSpeedGustMPH,Humidity,HourlyPrecipIn,Conditions,Clouds,dailyrainin,SoftwareType,DateUTC
2013-07-19 00:43:00,57.0,53.0,-100.00,SW,220,7.0,10.0,85,-99.99,,,-99.99,,2013-07-19 06:43:00,
2013-07-19 01:01:00,58.0,52.0,-100.00,South,185,2.0,6.0,82,-99.99,,,-99.99,,2013-07-19 07:01:00,
2013-07-19 01:43:00,59.0,51.0,-100.00,NE,35,4.0,6.0,74,-99.99,,,-99.99,,2013-07-19 07:43:00,
2013-07-19 02:11:00,58.0,52.0,-100.00,North,10,6.0,12.0,77,-99.99,,,-99.99,,2013-07-19 08:11:00,
2013-07-19 02:43:00,58.0,52.0,-100.00,NNE,25,4.0,6.0,82,-99.99,,,-99.99,,2013-07-19 08:43:00,
2013-07-19 03:43:00,58.0,51.0,-100.00,SE,125,5.0,6.0,79,-99.99,,,-99.99,,2013-07-19 09:43:00,
2013-07-19 04:43:00,55.0,52.0,-100.00,NW,325,4.0,6.0,87,-99.99,,,-99.99,,2013-07-19 10:43:00,
2013-07-19 05:43:00,55.0,50.0,-100.00,North,0,4.0,4.0,83,-99.99,,,-99.99,,2013-07-19 11:43:00,
2013-07-19 06:43:00,58.0,48.0,-100.00,NE,55,4.0,7.0,69,-99.99,,,-99.99,,2013-07-19 12:43:00,
2013-07-19 10:43:00,68.0,46.0,-100.00,East,100,13.0,19.0,45,-99.99,,,-99.99,,2013-07-19 16:43:00,
2013-07-19 11:02:00,67.0,45.0,-100.00,East,100,15.0,19.0,45,-99.99,,,-99.99,,2013-07-19 17:02:00,
2013-07-19 11:43:00,71.0,48.0,-100.00,ESE,110,9.0,15.0,44,-99.99,,,-99.99,,2013-07-19 17:43:00,
2013-07-19 12:42:00,67.0,49.0,-100.00,SE,130,16.0,24.0,52,-99.99,,,-99.99,,2013-07-19 18:42:00,
2013-07-19 13:43:00,68.0,48.0,-100.00,SE,140,13.0,22.0,48,-99.99,,,-99.99,,2013-07-19 19:43:00,
2013-07-19 14:43:00,68.0,50.0,-100.00,SE,130,17.0,22.0,53,-99.99,,,-99.99,,2013-07-19 20:43:00,
2013-07-19 15:42:00,68.0,51.0,-100.00,SE,140,17.0,26.0,54,-99.99,,,-99.99,,2013-07-19 21:42:00,
2013-07-19 17:43:00,66.0,55.0,-100.00,ESE,120,22.0,27.0,68,-99.99,,,-99.99,,2013-07-19 23:43:00,
2013-07-19 18:43:00,63.0,54.0,-100.00,SE,125,22.0,25.0,72,-99.99,,,-99.99,,2013-07-20 00:43:00,
2013-07-19 20:11:00,61.0,55.0,-100.00,SE,145,16.0,21.0,81,-99.99,,,-99.99,,2013-07-20 02:11:00,
2013-07-19 20:43:00,60.0,55.0,-100.00,SE,140,15.0,20.0,82,-99.99,,,-99.99,,2013-07-20 02:43:00,
2013-07-19 21:02:00,60.0,55.0,-100.00,SSE,165,12.0,18.0,85,-99.99,,,-99.99,,2013-07-20 03:02:00,
2013-07-19 21:11:00,59.0,55.0,-100.00,SSE,165,16.0,20.0,87,-99.99,,,-99.99,,2013-07-20 03:11:00,
2013-07-19 22:44:00,56.0,56.0,-100.00,SE,145,9.0,17.0,99,-99.99,,,-99.99,,2013-07-20 04:44:00,
2013-07-19 23:12:00,56.0,56.0,-100.00,SSE,150,9.0,12.0,99,-99.99,,,-99.99,,2013-07-20 05:12:00,